Time;durP1;ratioP1;P1;durP2;ratioP2;P2;SDS_P1;SDS_P2;PMS_P1;PMS_P2;Temp;Humidity;BMP_temperature;BMP_pressure;BME280_temperature;BME280_humidity;BME280_pressure;Samples;Min_cycle;Max_cycle;Signal;HPM_P1;HPM_P2
2022/01/24 00:01:55;;;;;;;2.33;1.55;;;;;;;;;;4986161;28;20409;-61
2022/01/24 00:04:21;;;;;;;1.83;1.40;;;;;;;;;;4992829;28;20508;-60
2022/01/24 00:06:47;;;;;;;2.00;1.25;;;;;;;;;;4989348;28;20018;-60
2022/01/24 00:09:13;;;;;;;2.35;1.77;;;;;;;;;;4990555;28;20036;-61
2022/01/24 00:27:20;;;;;;;1.40;1.30;;;;;;;;;;4990615;28;20045;-61
2022/01/24 00:29:46;;;;;;;3.38;1.42;;;;;;;;;;4991371;28;20026;-61
2022/01/24 00:32:11;;;;;;;2.85;1.33;;;;;;;;;;4993092;28;20033;-60
2022/01/24 00:34:37;;;;;;;2.78;1.63;;;;;;;;;;4990416;28;20038;-58
2022/01/24 00:37:03;;;;;;;2.13;1.80;;;;;;;;;;4994118;28;20482;-60
2022/01/24 00:39:29;;;;;;;2.70;1.67;;;;;;;;;;4992158;28;20041;-60
2022/01/24 00:46:55;;;;;;;1.73;1.50;;;;;;;;;;4994045;28;20038;-63
2022/01/24 00:54:53;;;;;;;5.28;1.70;;;;;;;;;;1375315;28;10002040;-61
2022/01/24 00:57:20;;;;;;;3.00;1.60;;;;;;;;;;4990191;28;20033;-61
2022/01/24 00:59:46;;;;;;;3.17;1.67;;;;;;;;;;4988635;28;20053;-61
2022/01/24 01:02:13;;;;;;;3.95;1.73;;;;;;;;;;4984014;28;20038;-60
2022/01/24 01:07:53;;;;;;;2.10;1.45;;;;;;;;;;4990662;28;20038;-60
2022/01/24 01:18:43;;;;;;;3.55;1.63;;;;;;;;;;4994491;28;20568;-60
2022/01/24 01:21:14;;;;;;;2.25;1.20;;;;;;;;;;4994498;28;20073;-60
2022/01/24 01:23:54;;;;;;;1.92;1.45;;;;;;;;;;4994522;28;20045;-60
2022/01/24 01:26:29;;;;;;;3.60;1.30;;;;;;;;;;5008255;28;20041;-60
2022/01/24 01:29:01;;;;;;;1.75;1.30;;;;;;;;;;4999725;28;20026;-60
2022/01/24 01:35:03;;;;;;;1.50;1.40;;;;;;;;;;4997191;28;20037;-60
2022/01/24 01:57:58;;;;;;;2.50;1.25;;;;;;;;;;4994476;28;20026;-61
2022/01/24 02:00:24;;;;;;;2.22;1.40;;;;;;;;;;4993423;28;20129;-61
2022/01/24 02:02:49;;;;;;;2.47;1.40;;;;;;;;;;4993253;28;20085;-60
2022/01/24 02:05:15;;;;;;;2.58;1.40;;;;;;;;;;4994518;28;20502;-61
2022/01/24 02:07:49;;;;;;;2.30;1.23;;;;;;;;;;4993732;28;20042;-60
2022/01/24 02:10:19;;;;;;;1.48;1.30;;;;;;;;;;4995748;28;20033;-60
2022/01/24 02:12:45;;;;;;;2.20;1.20;;;;;;;;;;4993680;28;20029;-60
2022/01/24 02:15:15;;;;;;;2.88;1.42;;;;;;;;;;4997776;28;20482;-60
2022/01/24 02:20:39;;;;;;;;;;;;;;;;;;4995156;28;20169;-57
2022/01/24 02:25:59;;;;;;;1.48;0.93;;;;;;;;;;4993895;28;20026;-54
2022/01/24 02:28:28;;;;;;;1.45;1.05;;;;;;;;;;4992872;28;20040;-60
2022/01/24 02:33:38;;;;;;;3.28;1.35;;;;;;;;;;4991984;28;20029;-60
2022/01/24 02:36:03;;;;;;;2.20;1.10;;;;;;;;;;4995027;28;20478;-60
2022/01/24 02:38:50;;;;;;;2.78;1.30;;;;;;;;;;4992608;28;20150;-61
2022/01/24 02:49:35;;;;;;;3.13;1.23;;;;;;;;;;4989936;28;20033;-60
2022/01/24 02:52:09;;;;;;;2.85;1.25;;;;;;;;;;3679186;28;10020771;-60
2022/01/24 02:54:37;;;;;;;1.55;1.20;;;;;;;;;;2063540;28;10002073;-60
2022/01/24 02:57:04;;;;;;;2.58;1.30;;;;;;;;;;4995851;28;20030;-60
2022/01/24 02:59:31;;;;;;;2.67;1.50;;;;;;;;;;4992595;28;20117;-53
2022/01/24 03:01:56;;;;;;;1.83;1.10;;;;;;;;;;4994944;28;20026;-59
2022/01/24 03:04:22;;;;;;;1.92;1.10;;;;;;;;;;4989795;28;20100;-61
2022/01/24 03:06:48;;;;;;;1.88;1.10;;;;;;;;;;4991427;28;20629;-60
2022/01/24 03:09:14;;;;;;;1.83;1.33;;;;;;;;;;4991638;28;20085;-60
2022/01/24 03:14:27;;;;;;;1.67;1.10;;;;;;;;;;4989893;28;20092;-60
2022/01/24 03:16:53;;;;;;;0.98;0.88;;;;;;;;;;4994122;28;20036;-61
2022/01/24 03:19:19;;;;;;;1.20;1.10;;;;;;;;;;4992583;28;20049;-61
2022/01/24 03:21:44;;;;;;;1.20;0.93;;;;;;;;;;4989304;28;20486;-61
2022/01/24 03:24:10;;;;;;;2.13;1.00;;;;;;;;;;4991611;28;20044;-60
2022/01/24 03:26:36;;;;;;;1.83;1.00;;;;;;;;;;4990057;28;20026;-61
2022/01/24 03:29:03;;;;;;;1.25;1.15;;;;;;;;;;4996013;28;20041;-61
2022/01/24 03:31:28;;;;;;;1.10;0.98;;;;;;;;;;4991723;28;20410;-61
2022/01/24 03:33:54;;;;;;;1.95;1.20;;;;;;;;;;4992830;28;20030;-62
2022/01/24 03:36:19;;;;;;;2.22;1.40;;;;;;;;;;4988438;28;20082;-61
2022/01/24 03:38:44;;;;;;;3.72;1.02;;;;;;;;;;4994093;28;20488;-61
2022/01/24 03:41:10;;;;;;;1.30;0.90;;;;;;;;;;4991281;28;20034;-60
2022/01/24 03:43:35;;;;;;;2.47;1.00;;;;;;;;;;4993006;28;20030;-61
2022/01/24 03:46:25;;;;;;;1.88;1.13;;;;;;;;;;4990550;28;20116;-60
2022/01/24 03:48:54;;;;;;;2.63;1.42;;;;;;;;;;4990376;28;20093;-61
2022/01/24 03:51:21;;;;;;;1.40;1.30;;;;;;;;;;4989200;28;20496;-61
2022/01/24 03:53:48;;;;;;;1.20;1.10;;;;;;;;;;4992669;28;21543;-61
2022/01/24 03:56:14;;;;;;;3.65;1.30;;;;;;;;;;4989305;28;20031;-61
2022/01/24 03:58:41;;;;;;;1.35;1.10;;;;;;;;;;4991431;28;21150;-61
2022/01/24 04:01:08;;;;;;;1.20;1.10;;;;;;;;;;4992027;28;20033;-61
2022/01/24 04:03:35;;;;;;;5.40;2.20;;;;;;;;;;4992167;28;20094;-59
2022/01/24 04:06:01;;;;;;;1.58;1.20;;;;;;;;;;4990063;28;20493;-61
2022/01/24 04:08:26;;;;;;;3.13;1.80;;;;;;;;;;4992778;28;20033;-62
2022/01/24 04:10:55;;;;;;;2.75;1.60;;;;;;;;;;4989489;28;20057;-61
2022/01/24 04:13:29;;;;;;;2.97;1.20;;;;;;;;;;4990080;28;20034;-61
2022/01/24 04:18:38;;;;;;;1.30;1.10;;;;;;;;;;4993259;28;20041;-61
2022/01/24 04:24:12;;;;;;;2.22;1.00;;;;;;;;;;4993242;28;20441;-61
2022/01/24 04:26:35;;;;;;;1.15;0.70;;;;;;;;;;4989709;28;20933;-61
2022/01/24 04:29:02;;;;;;;1.20;0.70;;;;;;;;;;4993771;28;20045;-61
2022/01/24 04:31:29;;;;;;;1.00;0.68;;;;;;;;;;4992179;28;20019;-59
2022/01/24 04:33:54;;;;;;;0.80;0.80;;;;;;;;;;4990810;28;20045;-61
2022/01/24 04:36:22;;;;;;;1.65;0.80;;;;;;;;;;4993808;28;20370;-61
2022/01/24 04:38:47;;;;;;;2.22;1.00;;;;;;;;;;4991767;28;20038;-61
2022/01/24 04:41:24;;;;;;;0.70;0.70;;;;;;;;;;4992077;28;20022;-61
2022/01/24 04:44:18;;;;;;;1.05;0.70;;;;;;;;;;4985570;28;20057;-61
2022/01/24 04:46:59;;;;;;;1.00;0.95;;;;;;;;;;4991122;28;20026;-60
2022/01/24 04:52:32;;;;;;;2.52;0.45;;;;;;;;;;3143851;28;10002605;-57
2022/01/24 04:54:57;;;;;;;0.95;0.88;;;;;;;;;;3271267;28;10001534;-60
2022/01/24 04:57:25;;;;;;;1.23;0.82;;;;;;;;;;4994006;28;20041;-61
2022/01/24 04:59:52;;;;;;;1.35;1.00;;;;;;;;;;4996335;28;20104;-60
2022/01/24 05:02:20;;;;;;;3.00;0.90;;;;;;;;;;4990219;28;20085;-60
2022/01/24 05:04:46;;;;;;;3.45;0.68;;;;;;;;;;4992839;28;20517;-60
2022/01/24 05:07:11;;;;;;;2.13;0.80;;;;;;;;;;4992030;28;20034;-61
2022/01/24 05:09:43;;;;;;;0.80;0.80;;;;;;;;;;4992414;28;20175;-58
2022/01/24 05:12:32;;;;;;;1.83;1.05;;;;;;;;;;4993929;28;20037;-58
2022/01/24 05:23:29;;;;;;;1.08;0.80;;;;;;;;;;4998381;28;20144;-56
2022/01/24 05:25:56;;;;;;;1.05;0.95;;;;;;;;;;4992941;28;20084;-57
2022/01/24 05:28:22;;;;;;;3.95;1.00;;;;;;;;;;4992261;28;20112;-57
2022/01/24 05:30:47;;;;;;;1.88;1.02;;;;;;;;;;4989810;28;20033;-58
2022/01/24 05:33:13;;;;;;;3.50;1.10;;;;;;;;;;4993632;28;20030;-56
2022/01/24 05:35:39;;;;;;;3.45;1.15;;;;;;;;;;4990187;28;20027;-56
2022/01/24 05:38:04;;;;;;;4.35;1.20;;;;;;;;;;4991794;28;20441;-58
2022/01/24 05:40:30;;;;;;;3.45;1.35;;;;;;;;;;4992068;28;20084;-58
2022/01/24 05:42:55;;;;;;;3.58;1.20;;;;;;;;;;4991740;28;20038;-58
2022/01/24 05:45:21;;;;;;;1.35;1.10;;;;;;;;;;4993779;28;20041;-56
2022/01/24 05:47:46;;;;;;;2.72;1.10;;;;;;;;;;4990566;28;20091;-57
2022/01/24 05:50:12;;;;;;;6.05;1.30;;;;;;;;;;4994322;28;20525;-58
2022/01/24 05:52:37;;;;;;;5.05;1.40;;;;;;;;;;4993433;28;20030;-56
2022/01/24 05:55:03;;;;;;;1.90;1.15;;;;;;;;;;4990817;28;20081;-59
2022/01/24 05:57:29;;;;;;;5.47;1.15;;;;;;;;;;4990127;28;20033;-59
2022/01/24 05:59:55;;;;;;;3.22;1.10;;;;;;;;;;4991809;28;20042;-57
2022/01/24 06:02:20;;;;;;;3.60;0.93;;;;;;;;;;4991884;28;20461;-58
2022/01/24 06:04:46;;;;;;;1.38;0.75;;;;;;;;;;4988196;28;20129;-55
2022/01/24 06:07:11;;;;;;;2.67;0.82;;;;;;;;;;4993528;28;20363;-58
2022/01/24 06:09:37;;;;;;;0.93;0.75;;;;;;;;;;4990753;28;20030;-57
2022/01/24 06:12:02;;;;;;;2.45;0.98;;;;;;;;;;4994050;28;20033;-57
2022/01/24 06:14:28;;;;;;;0.80;0.80;;;;;;;;;;4989456;28;20034;-52
2022/01/24 06:16:53;;;;;;;1.83;1.00;;;;;;;;;;4992122;28;20040;-56
2022/01/24 06:19:18;;;;;;;3.25;0.80;;;;;;;;;;4987685;28;20051;-55
2022/01/24 06:21:45;;;;;;;0.77;0.77;;;;;;;;;;4992456;28;20041;-56
2022/01/24 06:24:11;;;;;;;0.90;0.80;;;;;;;;;;4991193;28;20034;-57
2022/01/24 06:26:37;;;;;;;1.10;1.00;;;;;;;;;;4990980;28;20041;-54
2022/01/24 06:29:03;;;;;;;5.53;1.30;;;;;;;;;;4992023;28;20441;-59
2022/01/24 06:31:29;;;;;;;1.58;0.95;;;;;;;;;;4990465;28;20034;-59
2022/01/24 06:33:54;;;;;;;0.95;0.75;;;;;;;;;;4992870;28;20062;-58
2022/01/24 06:36:20;;;;;;;2.28;0.93;;;;;;;;;;4990676;28;20145;-59
2022/01/24 06:38:45;;;;;;;1.30;1.08;;;;;;;;;;4993056;28;20406;-57
2022/01/24 06:41:10;;;;;;;3.25;0.93;;;;;;;;;;4990189;28;20719;-57
2022/01/24 06:43:36;;;;;;;2.65;1.02;;;;;;;;;;4990192;28;20045;-56
2022/01/24 06:46:02;;;;;;;2.42;1.40;;;;;;;;;;4990518;28;20034;-57
2022/01/24 06:48:28;;;;;;;3.78;1.10;;;;;;;;;;4990640;28;20028;-57
2022/01/24 06:50:54;;;;;;;2.50;1.20;;;;;;;;;;4949843;28;20480;-56
2022/01/24 06:53:19;;;;;;;2.00;0.80;;;;;;;;;;307749;28;10022583;-57
2022/01/24 06:55:45;;;;;;;8.95;1.30;;;;;;;;;;4992210;28;20038;-58
2022/01/24 06:58:11;;;;;;;9.45;1.38;;;;;;;;;;4988222;28;20193;-58
2022/01/24 07:00:36;;;;;;;6.53;1.63;;;;;;;;;;4990867;28;20037;-55
2022/01/24 07:03:02;;;;;;;4.95;1.10;;;;;;;;;;4990374;28;20062;-55
2022/01/24 07:05:29;;;;;;;1.77;1.02;;;;;;;;;;4991649;28;20026;-56
2022/01/24 07:07:56;;;;;;;13.25;1.52;;;;;;;;;;4991363;28;20485;-55
2022/01/24 07:10:26;;;;;;;7.38;1.50;;;;;;;;;;4987681;28;20944;-54
2022/01/24 07:12:52;;;;;;;4.63;1.70;;;;;;;;;;4990756;28;20030;-59
2022/01/24 07:15:20;;;;;;;6.18;1.30;;;;;;;;;;4992356;28;20508;-56
2022/01/24 07:20:16;;;;;;;1.45;1.27;;;;;;;;;;4991174;28;20034;-58
2022/01/24 07:22:42;;;;;;;2.60;1.42;;;;;;;;;;4989951;28;20382;-57
2022/01/24 07:25:08;;;;;;;1.85;1.45;;;;;;;;;;4990938;28;20026;-56
2022/01/24 07:27:33;;;;;;;4.78;1.60;;;;;;;;;;4988251;28;20386;-57
2022/01/24 07:29:58;;;;;;;2.13;1.38;;;;;;;;;;4991530;28;20022;-56
2022/01/24 07:32:24;;;;;;;2.38;1.30;;;;;;;;;;4990985;28;20128;-58
2022/01/24 07:34:50;;;;;;;2.20;1.50;;;;;;;;;;4989378;28;20494;-57
2022/01/24 07:37:16;;;;;;;2.63;1.55;;;;;;;;;;4986235;28;20022;-56
2022/01/24 07:39:41;;;;;;;3.67;1.40;;;;;;;;;;4991318;28;20034;-57
2022/01/24 07:42:16;;;;;;;2.90;1.40;;;;;;;;;;4988180;28;20517;-58
2022/01/24 07:44:41;;;;;;;1.67;1.50;;;;;;;;;;4989254;28;20498;-57
2022/01/24 07:47:07;;;;;;;2.92;1.40;;;;;;;;;;4990956;28;20033;-58
2022/01/24 07:49:32;;;;;;;1.30;1.20;;;;;;;;;;4987369;28;20034;-56
2022/01/24 07:51:58;;;;;;;2.80;1.20;;;;;;;;;;4990895;28;20026;-58
2022/01/24 07:54:23;;;;;;;2.08;1.00;;;;;;;;;;4988543;28;20066;-57
2022/01/24 07:56:49;;;;;;;2.97;1.17;;;;;;;;;;4986414;28;20494;-56
2022/01/24 07:59:15;;;;;;;1.63;1.30;;;;;;;;;;4990093;28;20026;-57
2022/01/24 08:01:41;;;;;;;3.00;1.77;;;;;;;;;;4988488;28;20573;-57
2022/01/24 08:04:07;;;;;;;2.38;1.60;;;;;;;;;;4992099;28;20594;-54
2022/01/24 08:06:33;;;;;;;2.25;1.67;;;;;;;;;;4988889;28;20018;-57
2022/01/24 08:08:58;;;;;;;9.23;1.90;;;;;;;;;;4991504;28;20042;-58
2022/01/24 08:11:24;;;;;;;2.60;1.40;;;;;;;;;;4985849;28;20385;-58
2022/01/24 08:13:51;;;;;;;4.60;1.83;;;;;;;;;;4990511;28;20376;-54
2022/01/24 08:16:17;;;;;;;4.53;2.10;;;;;;;;;;4988657;28;20049;-58
2022/01/24 08:18:43;;;;;;;7.18;1.80;;;;;;;;;;4989439;28;20077;-58
2022/01/24 08:21:08;;;;;;;5.20;1.50;;;;;;;;;;4985558;28;20030;-57
2022/01/24 08:23:34;;;;;;;7.50;1.52;;;;;;;;;;4989549;28;20524;-56
2022/01/24 08:25:59;;;;;;;1.33;1.23;;;;;;;;;;4989828;28;20033;-55
2022/01/24 08:28:25;;;;;;;1.67;1.58;;;;;;;;;;4988238;28;20476;-57
2022/01/24 08:30:52;;;;;;;2.03;1.40;;;;;;;;;;4990780;28;20501;-56
2022/01/24 08:33:17;;;;;;;2.50;1.60;;;;;;;;;;4989266;28;20117;-51
2022/01/24 08:35:43;;;;;;;3.55;1.50;;;;;;;;;;4991365;28;20224;-57
2022/01/24 08:38:08;;;;;;;2.72;1.50;;;;;;;;;;4987925;28;20026;-57
2022/01/24 08:40:35;;;;;;;3.83;2.05;;;;;;;;;;4988855;28;20034;-58
2022/01/24 08:43:05;;;;;;;5.38;1.75;;;;;;;;;;4988230;28;20070;-55
2022/01/24 08:45:50;;;;;;;2.95;1.70;;;;;;;;;;4989967;28;20029;-58
2022/01/24 08:48:19;;;;;;;1.88;1.67;;;;;;;;;;4989653;28;20030;-58
2022/01/24 08:50:47;;;;;;;5.72;1.45;;;;;;;;;;4990587;28;20027;-58
2022/01/24 08:53:34;;;;;;;10.65;1.40;;;;;;;;;;1162543;28;10022653;-51
2022/01/24 08:56:02;;;;;;;3.47;1.77;;;;;;;;;;4645941;28;10001353;-57
2022/01/24 08:58:28;;;;;;;4.60;1.50;;;;;;;;;;4989360;28;20026;-55
2022/01/24 09:00:54;;;;;;;1.48;1.38;;;;;;;;;;4987489;28;20026;-58
2022/01/24 09:03:19;;;;;;;8.57;1.50;;;;;;;;;;4989933;28;20450;-56
2022/01/24 09:05:46;;;;;;;4.93;1.70;;;;;;;;;;4988002;28;20041;-58
2022/01/24 09:08:11;;;;;;;1.73;1.30;;;;;;;;;;4990784;28;20026;-57
2022/01/24 09:10:39;;;;;;;5.72;1.67;;;;;;;;;;4987043;28;20039;-58
2022/01/24 09:13:05;;;;;;;6.88;1.60;;;;;;;;;;4988322;28;20026;-53
2022/01/24 09:15:30;;;;;;;1.65;1.10;;;;;;;;;;4989982;28;20034;-58
2022/01/24 09:17:56;;;;;;;1.92;1.50;;;;;;;;;;4989911;28;20627;-58
2022/01/24 09:20:21;;;;;;;2.45;1.52;;;;;;;;;;4989301;28;20042;-55
2022/01/24 09:22:48;;;;;;;2.75;1.58;;;;;;;;;;4987405;28;20030;-55
2022/01/24 09:25:16;;;;;;;6.03;1.85;;;;;;;;;;4989115;28;20038;-57
2022/01/24 09:27:42;;;;;;;5.38;1.88;;;;;;;;;;4987584;28;20046;-58
2022/01/24 09:30:09;;;;;;;3.95;2.00;;;;;;;;;;4988885;28;20022;-55
2022/01/24 09:32:35;;;;;;;6.45;2.80;;;;;;;;;;4991488;28;20045;-58
2022/01/24 09:35:01;;;;;;;5.50;2.05;;;;;;;;;;4989906;28;20029;-58
2022/01/24 09:37:27;;;;;;;3.22;1.60;;;;;;;;;;4994557;28;20038;-58
2022/01/24 09:39:52;;;;;;;7.35;1.70;;;;;;;;;;4990992;28;20037;-59
2022/01/24 09:42:18;;;;;;;4.32;1.80;;;;;;;;;;4992198;28;20030;-60
2022/01/24 09:44:45;;;;;;;3.40;1.83;;;;;;;;;;4989437;28;20027;-59
2022/01/24 09:47:16;;;;;;;6.22;2.20;;;;;;;;;;4990988;28;20399;-59
2022/01/24 09:49:42;;;;;;;11.30;2.20;;;;;;;;;;4992690;28;20053;-59
2022/01/24 09:52:08;;;;;;;2.65;1.70;;;;;;;;;;4992262;28;20038;-58
2022/01/24 09:54:33;;;;;;;9.48;2.78;;;;;;;;;;4994131;28;20030;-57
2022/01/24 09:56:59;;;;;;;3.25;1.88;;;;;;;;;;4992557;28;20026;-57
2022/01/24 09:59:24;;;;;;;4.10;2.13;;;;;;;;;;4990738;28;20030;-57
2022/01/24 10:01:50;;;;;;;6.82;2.10;;;;;;;;;;4994014;28;20018;-57
2022/01/24 10:04:20;;;;;;;2.88;1.70;;;;;;;;;;4992030;28;20029;-58
2022/01/24 10:07:11;;;;;;;1.83;1.70;;;;;;;;;;4991463;28;20086;-58
2022/01/24 10:09:42;;;;;;;3.38;1.70;;;;;;;;;;4993359;28;20120;-56
2022/01/24 10:18:02;;;;;;;7.45;2.25;;;;;;;;;;4991463;28;20412;-57
2022/01/24 10:20:33;;;;;;;3.15;1.92;;;;;;;;;;4992940;28;20026;-57
2022/01/24 10:23:21;;;;;;;2.17;1.80;;;;;;;;;;4991762;28;20038;-58
2022/01/24 10:26:00;;;;;;;2.83;2.03;;;;;;;;;;4991954;28;20789;-56
2022/01/24 10:28:32;;;;;;;4.15;1.83;;;;;;;;;;4993474;28;20026;-58
2022/01/24 10:31:24;;;;;;;2.47;1.70;;;;;;;;;;4991883;28;20022;-57
2022/01/24 10:34:05;;;;;;;1.98;1.83;;;;;;;;;;4993815;28;20042;-55
2022/01/24 10:36:55;;;;;;;2.95;1.88;;;;;;;;;;4992243;28;20096;-54
2022/01/24 10:39:33;;;;;;;2.15;1.75;;;;;;;;;;4984056;28;20826;-54
2022/01/24 10:45:11;;;;;;;2.85;1.60;;;;;;;;;;4992618;28;20032;-57
2022/01/24 10:47:44;;;;;;;2.50;1.70;;;;;;;;;;4990188;28;20037;-57
2022/01/24 10:50:10;;;;;;;7.53;2.85;;;;;;;;;;4992385;28;20018;-58
2022/01/24 10:52:57;;;;;;;1.90;1.53;;;;;;;;;;1969540;28;10022770;-51
2022/01/24 10:55:28;;;;;;;2.55;2.28;;;;;;;;;;3959950;28;10001076;-55
2022/01/24 10:58:09;;;;;;;6.38;2.58;;;;;;;;;;4990107;28;20079;-59
2022/01/24 11:00:36;;;;;;;3.28;1.92;;;;;;;;;;4992713;28;20057;-59
2022/01/24 11:03:04;;;;;;;3.85;1.90;;;;;;;;;;4994087;28;20054;-58
2022/01/24 11:05:34;;;;;;;4.43;1.80;;;;;;;;;;4991389;28;20538;-58
2022/01/24 11:08:03;;;;;;;2.92;1.90;;;;;;;;;;4989746;28;20026;-57
2022/01/24 11:10:31;;;;;;;4.15;1.85;;;;;;;;;;4990994;28;20488;-60
2022/01/24 11:12:57;;;;;;;3.70;1.70;;;;;;;;;;4992297;28;20401;-59
2022/01/24 11:15:24;;;;;;;2.30;1.80;;;;;;;;;;4992448;28;20026;-56
2022/01/24 11:17:51;;;;;;;5.30;2.17;;;;;;;;;;4992511;28;20113;-58
2022/01/24 11:20:18;;;;;;;3.42;2.20;;;;;;;;;;4989176;28;20034;-58
2022/01/24 11:22:52;;;;;;;6.28;2.08;;;;;;;;;;4992977;28;20125;-57
2022/01/24 11:25:18;;;;;;;3.28;2.13;;;;;;;;;;4991382;28;20039;-57
2022/01/24 11:27:47;;;;;;;6.57;1.90;;;;;;;;;;4990084;28;20489;-57
2022/01/24 11:30:30;;;;;;;5.18;2.55;;;;;;;;;;4987994;28;20025;-56
2022/01/24 11:33:04;;;;;;;7.83;2.90;;;;;;;;;;4985914;28;20112;-57
2022/01/24 11:35:38;;;;;;;4.38;2.50;;;;;;;;;;4990124;28;20685;-57
2022/01/24 11:38:24;;;;;;;3.30;2.03;;;;;;;;;;4991558;28;20531;-58
2022/01/24 11:40:53;;;;;;;3.38;2.15;;;;;;;;;;4993581;28;20026;-54
2022/01/24 11:43:47;;;;;;;5.40;2.30;;;;;;;;;;4989492;28;20030;-57
2022/01/24 11:46:30;;;;;;;;;;;;;;;;;;4990441;28;20129;-54
2022/01/24 11:49:27;;;;;;;2.63;2.13;;;;;;;;;;4988718;28;20016;-58
2022/01/24 11:52:04;;;;;;;7.38;1.92;;;;;;;;;;4981966;28;20177;-58
2022/01/24 11:54:56;;;;;;;4.13;2.22;;;;;;;;;;4985587;28;20470;-57
2022/01/24 11:57:26;;;;;;;4.32;2.00;;;;;;;;;;4990207;28;20057;-58
2022/01/24 12:00:07;;;;;;;3.13;1.83;;;;;;;;;;4988290;28;20030;-57
2022/01/24 12:02:47;;;;;;;8.73;2.65;;;;;;;;;;4990848;28;20037;-58
2022/01/24 12:05:17;;;;;;;4.60;2.20;;;;;;;;;;4988352;28;20033;-57
2022/01/24 12:07:47;;;;;;;3.88;2.28;;;;;;;;;;4988129;28;20109;-58
2022/01/24 12:10:42;;;;;;;8.50;2.13;;;;;;;;;;4991335;28;20026;-57
2022/01/24 12:13:26;;;;;;;6.22;2.30;;;;;;;;;;4989517;28;20509;-58
2022/01/24 12:15:58;;;;;;;3.80;2.05;;;;;;;;;;4991184;28;20049;-58
2022/01/24 12:18:27;;;;;;;8.50;2.60;;;;;;;;;;4988317;28;20485;-58
2022/01/24 12:21:06;;;;;;;6.18;2.08;;;;;;;;;;4989911;28;20022;-54
2022/01/24 12:23:36;;;;;;;16.05;2.90;;;;;;;;;;4985283;28;20096;-58
2022/01/24 12:26:12;;;;;;;4.30;1.95;;;;;;;;;;4991904;28;20113;-57
2022/01/24 12:28:43;;;;;;;6.53;2.42;;;;;;;;;;4987810;28;20490;-57
2022/01/24 12:31:34;;;;;;;2.90;2.10;;;;;;;;;;4987820;28;20090;-57
2022/01/24 12:34:10;;;;;;;7.55;2.45;;;;;;;;;;4989986;28;20026;-58
2022/01/24 12:36:47;;;;;;;7.28;2.28;;;;;;;;;;4988535;28;20089;-53
2022/01/24 12:39:15;;;;;;;7.65;2.05;;;;;;;;;;4990781;28;20057;-53
2022/01/24 12:41:47;;;;;;;4.53;2.10;;;;;;;;;;4988363;28;20034;-58
2022/01/24 12:47:24;;;;;;;4.65;2.15;;;;;;;;;;4987897;28;20037;-57
2022/01/24 12:49:53;;;;;;;5.25;2.42;;;;;;;;;;4990030;28;20108;-58
2022/01/24 12:52:28;;;;;;;6.60;2.10;;;;;;;;;;3237999;28;10022322;-56
2022/01/24 12:54:57;;;;;;;3.88;1.90;;;;;;;;;;2235919;28;10001945;-57
2022/01/24 12:57:29;;;;;;;3.33;1.92;;;;;;;;;;4988850;28;20030;-57
2022/01/24 13:00:13;;;;;;;6.90;2.08;;;;;;;;;;4990097;28;20058;-56
2022/01/24 13:02:39;;;;;;;6.18;2.00;;;;;;;;;;4986964;28;20026;-57
2022/01/24 13:05:13;;;;;;;7.00;1.98;;;;;;;;;;4988631;28;20501;-58
2022/01/24 13:07:41;;;;;;;4.43;1.90;;;;;;;;;;4989646;28;20470;-59
2022/01/24 13:10:10;;;;;;;3.00;2.42;;;;;;;;;;4991041;28;20060;-54
2022/01/24 13:12:36;;;;;;;3.88;1.80;;;;;;;;;;4994229;28;20041;-58
2022/01/24 13:15:06;;;;;;;3.78;1.73;;;;;;;;;;4991283;28;20041;-57
2022/01/24 13:20:56;;;;;;;4.60;2.20;;;;;;;;;;4991413;28;20670;-57
2022/01/24 13:23:21;;;;;;;8.80;2.53;;;;;;;;;;4993837;28;20410;-58
2022/01/24 13:25:47;;;;;;;7.85;2.03;;;;;;;;;;4988685;28;20109;-57
2022/01/24 13:28:15;;;;;;;6.43;1.80;;;;;;;;;;4990953;28;20109;-50
2022/01/24 13:30:45;;;;;;;4.53;1.73;;;;;;;;;;4991482;28;20382;-58
2022/01/24 13:33:14;;;;;;;3.38;1.90;;;;;;;;;;4993375;28;20034;-55
2022/01/24 13:35:44;;;;;;;7.78;2.17;;;;;;;;;;4993114;28;20053;-57
2022/01/24 13:38:14;;;;;;;4.55;2.10;;;;;;;;;;4992034;28;20041;-60
2022/01/24 13:40:54;;;;;;;8.98;1.80;;;;;;;;;;4993042;28;20061;-58
2022/01/24 13:43:44;;;;;;;3.92;2.03;;;;;;;;;;4991694;28;20096;-56
2022/01/24 13:49:16;;;;;;;6.25;2.10;;;;;;;;;;5057662;23;20053;-56
2022/01/24 13:51:48;;;;;;;3.47;1.90;;;;;;;;;;5015746;28;20040;-52
2022/01/24 13:54:25;;;;;;;2.90;1.85;;;;;;;;;;5011260;28;20033;-57
2022/01/24 13:56:56;;;;;;;3.63;1.88;;;;;;;;;;4994717;28;20029;-56
2022/01/24 13:59:30;;;;;;;3.70;2.55;;;;;;;;;;5011854;28;20038;-57
2022/01/24 14:02:03;;;;;;;2.25;1.77;;;;;;;;;;5012623;28;20036;-54
2022/01/24 14:04:48;;;;;;;4.07;1.73;;;;;;;;;;5010412;28;20493;-56
2022/01/24 14:07:13;;;;;;;7.45;1.90;;;;;;;;;;5011713;28;20025;-56
2022/01/24 14:09:49;;;;;;;3.05;1.90;;;;;;;;;;5010399;28;20037;-57
2022/01/24 14:12:46;;;;;;;2.55;1.85;;;;;;;;;;5010408;28;20388;-56
2022/01/24 14:15:26;;;;;;;3.72;1.92;;;;;;;;;;5012524;28;20470;-56
2022/01/24 14:20:41;;;;;;;3.75;1.75;;;;;;;;;;5011105;28;20041;-57
2022/01/24 14:23:20;;;;;;;2.08;1.83;;;;;;;;;;5011987;28;20032;-57
2022/01/24 14:25:46;;;;;;;3.03;1.83;;;;;;;;;;5012048;28;20032;-57
2022/01/24 14:28:12;;;;;;;5.82;1.80;;;;;;;;;;5011271;28;20034;-58
2022/01/24 14:30:43;;;;;;;4.90;1.95;;;;;;;;;;5013402;28;20034;-57
2022/01/24 14:33:20;;;;;;;4.38;1.90;;;;;;;;;;5010740;28;20045;-53
2022/01/24 14:35:54;;;;;;;3.88;2.10;;;;;;;;;;4992635;28;20025;-52
2022/01/24 14:38:27;;;;;;;;;;;;;;;;;;4994693;28;20049;-52
2022/01/24 14:40:54;;;;;;;4.65;3.08;;;;;;;;;;5012112;28;19921;-52
2022/01/24 14:46:12;;;;;;;7.00;2.42;;;;;;;;;;5012280;28;20064;-58
2022/01/24 14:48:42;;;;;;;6.95;2.20;;;;;;;;;;5011874;28;20048;-53
2022/01/24 14:51:22;;;;;;;7.21;1.99;;;;;;;;;;4830302;28;10000536;-57
2022/01/24 14:53:49;;;;;;;4.10;1.80;;;;;;;;;;1035128;28;10002150;-55
2022/01/24 14:56:15;;;;;;;2.35;1.75;;;;;;;;;;5010639;28;20358;-56
2022/01/24 14:58:40;;;;;;;2.90;1.45;;;;;;;;;;5010424;28;20034;-57
2022/01/24 15:01:06;;;;;;;3.17;1.85;;;;;;;;;;5012330;28;20025;-57
2022/01/24 15:03:31;;;;;;;3.33;1.95;;;;;;;;;;5010208;28;20053;-57
2022/01/24 15:05:58;;;;;;;3.50;2.00;;;;;;;;;;5010265;28;20060;-57
2022/01/24 15:08:24;;;;;;;9.90;2.10;;;;;;;;;;5010593;28;20437;-55
2022/01/24 15:10:49;;;;;;;3.05;1.85;;;;;;;;;;5010590;28;20091;-57
2022/01/24 15:13:18;;;;;;;2.47;1.67;;;;;;;;;;5010177;28;20099;-55
2022/01/24 15:15:53;;;;;;;4.20;2.05;;;;;;;;;;5009073;28;20030;-56
2022/01/24 15:24:23;;;;;;;3.25;2.28;;;;;;;;;;5011472;28;20036;-55
2022/01/24 15:26:45;;;;;;;6.00;2.25;;;;;;;;;;5008882;28;20461;-55
2022/01/24 15:29:10;;;;;;;3.67;2.17;;;;;;;;;;5011045;28;20401;-58
2022/01/24 15:31:36;;;;;;;3.40;1.90;;;;;;;;;;5008360;28;20041;-58
2022/01/24 15:34:02;;;;;;;4.50;2.03;;;;;;;;;;5009593;28;20061;-57
2022/01/24 15:36:28;;;;;;;3.47;2.42;;;;;;;;;;5013175;28;20549;-52
2022/01/24 15:38:58;;;;;;;2.08;1.80;;;;;;;;;;5010936;28;20160;-57
2022/01/24 15:41:23;;;;;;;4.32;2.00;;;;;;;;;;5008996;28;20108;-58
2022/01/24 15:48:42;;;;;;;7.40;2.45;;;;;;;;;;5006780;28;20026;-58
2022/01/24 15:51:12;;;;;;;5.90;2.10;;;;;;;;;;5011932;28;20034;-57
2022/01/24 15:53:41;;;;;;;3.50;1.98;;;;;;;;;;5008922;28;20029;-58
2022/01/24 15:57:39;;;;;;;4.63;2.20;;;;;;;;;;5012556;28;20109;-58
2022/01/24 15:59:04;;;;;;;6.65;2.13;;;;;;;;;;5011789;28;20033;-58
2022/01/24 16:01:30;;;;;;;3.05;1.80;;;;;;;;;;5013364;28;20065;-57
2022/01/24 16:03:55;;;;;;;3.72;1.90;;;;;;;;;;5011282;28;20061;-57
2022/01/24 16:06:21;;;;;;;5.32;1.90;;;;;;;;;;5011450;28;20017;-57
2022/01/24 16:08:46;;;;;;;2.92;1.85;;;;;;;;;;5011761;28;20026;-52
2022/01/24 16:11:12;;;;;;;5.95;2.20;;;;;;;;;;5009925;28;20083;-58
2022/01/24 16:13:39;;;;;;;4.32;1.73;;;;;;;;;;5009529;28;20081;-55
2022/01/24 16:16:05;;;;;;;5.55;2.58;;;;;;;;;;5009111;28;20036;-57
2022/01/24 16:18:31;;;;;;;2.80;2.05;;;;;;;;;;5007706;28;20396;-58
2022/01/24 16:23:26;;;;;;;3.42;1.80;;;;;;;;;;5009194;28;20141;-55
2022/01/24 16:25:55;;;;;;;4.05;2.03;;;;;;;;;;5011987;28;20057;-55
2022/01/24 16:28:23;;;;;;;4.32;2.30;;;;;;;;;;5006110;28;20033;-57
2022/01/24 16:30:54;;;;;;;2.92;1.90;;;;;;;;;;5008907;28;20083;-54
2022/01/24 16:33:21;;;;;;;5.25;1.77;;;;;;;;;;5007643;28;20025;-55
2022/01/24 16:35:48;;;;;;;3.63;2.05;;;;;;;;;;5005650;28;20038;-59
2022/01/24 16:38:14;;;;;;;2.15;1.75;;;;;;;;;;5008674;28;20060;-58
2022/01/24 16:40:48;;;;;;;3.65;2.03;;;;;;;;;;5008237;28;20127;-58
2022/01/24 16:48:37;;;;;;;4.47;2.10;;;;;;;;;;5007971;28;20026;-57
2022/01/24 16:51:05;;;;;;;5.22;1.95;;;;;;;;;;4984893;28;20065;-54
2022/01/24 16:53:36;;;;;;;3.30;2.15;;;;;;;;;;440119;28;10022710;-54
2022/01/24 16:56:02;;;;;;;4.80;2.28;;;;;;;;;;4991887;28;20266;-60
2022/01/24 16:58:30;;;;;;;4.25;1.95;;;;;;;;;;4989572;28;20307;-56
2022/01/24 17:00:57;;;;;;;4.25;2.15;;;;;;;;;;5005346;28;20045;-57
2022/01/24 17:03:22;;;;;;;3.60;2.10;;;;;;;;;;5001987;28;20604;-57
2022/01/24 17:05:48;;;;;;;7.78;2.60;;;;;;;;;;5004374;28;20097;-57
2022/01/24 17:08:14;;;;;;;6.18;2.47;;;;;;;;;;5004492;28;20021;-57
2022/01/24 17:10:41;;;;;;;5.20;2.42;;;;;;;;;;5008525;28;20041;-57
2022/01/24 17:13:09;;;;;;;5.80;2.85;;;;;;;;;;5009600;28;20080;-56
2022/01/24 17:15:38;;;;;;;3.75;2.40;;;;;;;;;;5010654;28;20026;-57
2022/01/24 17:18:04;;;;;;;7.53;2.40;;;;;;;;;;5007691;28;20029;-54
2022/01/24 17:20:29;;;;;;;4.88;2.40;;;;;;;;;;5007574;28;20041;-56